createdAt,value
2022-10-31T00:01:31.227Z,14.48
2022-10-31T00:03:58.707Z,10.13
2022-10-31T00:06:26.223Z,12.20
2022-10-31T00:08:57.446Z,12.85
2022-10-31T00:11:25.454Z,11.70
2022-10-31T00:13:53.194Z,14.43
2022-10-31T00:16:25.102Z,8.00
2022-10-31T00:19:01.034Z,10.48
2022-10-31T00:21:29.927Z,10.77
2022-10-31T00:23:58.484Z,9.85
2022-10-31T00:26:26.139Z,8.35
2022-10-31T00:28:53.592Z,12.18
2022-10-31T00:31:21.052Z,10.38
2022-10-31T00:33:48.504Z,10.45
2022-10-31T00:36:18.221Z,11.73
2022-10-31T00:38:46.702Z,12.77
2022-10-31T00:41:16.353Z,9.52
2022-10-31T00:43:45.067Z,10.38
2022-10-31T00:46:13.572Z,10.40
2022-10-31T00:48:41.445Z,15.95
2022-10-31T00:51:09.567Z,10.93
2022-10-31T00:53:37.120Z,9.15
2022-10-31T00:56:04.908Z,13.70
2022-10-31T00:58:32.525Z,13.55
2022-10-31T01:01:00.196Z,11.05
2022-10-31T01:03:31.222Z,14.57
2022-10-31T01:06:16.912Z,10.27
2022-10-31T01:08:44.500Z,9.77
2022-10-31T01:11:18.440Z,20.15
2022-10-31T01:13:46.902Z,10.48
2022-10-31T01:16:18.008Z,11.93
2022-10-31T01:18:45.943Z,12.35
2022-10-31T01:21:25.105Z,11.18
2022-10-31T01:23:55.015Z,11.73
2022-10-31T01:26:34.428Z,12.07
2022-10-31T01:29:06.328Z,8.52
2022-10-31T01:31:39.491Z,11.43
2022-10-31T01:34:07.829Z,11.18
2022-10-31T01:36:39.928Z,10.68
2022-10-31T01:39:10.548Z,9.00
2022-10-31T01:41:41.318Z,10.75
2022-10-31T01:44:17.862Z,8.68
2022-10-31T01:47:05.964Z,11.40
2022-10-31T01:49:39.565Z,11.90
2022-10-31T01:52:32.406Z,9.20
2022-10-31T01:55:07.057Z,10.82
2022-10-31T01:57:37.339Z,12.63
2022-10-31T02:00:09.956Z,14.75
2022-10-31T02:02:38.109Z,12.63
2022-10-31T02:05:09.842Z,12.93
2022-10-31T02:08:00.585Z,7.30
2022-10-31T02:10:29.420Z,19.00
2022-10-31T02:13:00.457Z,16.33
2022-10-31T02:15:28.430Z,15.00
2022-10-31T02:17:56.144Z,13.20
2022-10-31T02:20:26.932Z,14.38
2022-10-31T02:23:25.378Z,11.43
2022-10-31T02:26:10.762Z,13.93
2022-10-31T02:29:02.057Z,14.23
2022-10-31T02:31:50.681Z,10.95
2022-10-31T02:34:18.061Z,16.27
2022-10-31T02:36:58.726Z,12.82
2022-10-31T02:39:34.029Z,17.90
2022-10-31T02:42:50.873Z,15.13
2022-10-31T02:45:37.059Z,14.48
2022-10-31T02:48:14.108Z,16.58
2022-10-31T02:50:46.272Z,15.68
2022-10-31T02:53:16.932Z,18.52
2022-10-31T02:55:51.066Z,17.33
2022-10-31T02:58:23.333Z,20.23
2022-10-31T03:03:57.047Z,16.50
2022-10-31T03:07:07.171Z,18.52
2022-10-31T03:09:59.171Z,20.50
2022-10-31T03:12:30.465Z,23.95
2022-10-31T03:15:34.301Z,25.30
2022-10-31T03:18:17.661Z,27.83
2022-10-31T03:20:55.493Z,22.48
2022-10-31T03:23:24.922Z,20.52
2022-10-31T03:25:55.864Z,23.58
2022-10-31T03:28:30.576Z,18.63
2022-10-31T03:31:02.269Z,25.50
2022-10-31T03:33:42.577Z,26.70
2022-10-31T03:36:13.441Z,24.60
2022-10-31T03:38:43.375Z,27.55
2022-10-31T03:41:15.945Z,31.33
2022-10-31T03:43:53.716Z,30.10
2022-10-31T03:46:21.617Z,32.33
2022-10-31T03:48:49.554Z,30.75
2022-10-31T03:51:20.975Z,23.15
2022-10-31T03:54:22.768Z,23.70
2022-10-31T03:57:05.637Z,26.38
2022-10-31T03:59:46.853Z,28.45
2022-10-31T04:02:18.962Z,37.58
2022-10-31T04:04:48.358Z,32.78
2022-10-31T04:07:17.134Z,33.25
2022-10-31T04:09:48.393Z,29.88
2022-10-31T04:12:18.506Z,37.55
2022-10-31T04:14:49.836Z,27.23
2022-10-31T04:17:20.917Z,29.48
2022-10-31T04:19:48.437Z,24.05
2022-10-31T04:22:15.950Z,22.60
2022-10-31T04:24:43.455Z,24.92
2022-10-31T04:27:13.474Z,29.67
2022-10-31T04:29:41.103Z,27.20
2022-10-31T04:32:08.621Z,27.75
2022-10-31T04:34:36.096Z,29.85
2022-10-31T04:37:03.568Z,26.60
2022-10-31T04:39:31.028Z,23.50
2022-10-31T04:41:58.482Z,26.65
2022-10-31T04:44:25.929Z,27.98
2022-10-31T04:46:53.360Z,29.05
2022-10-31T04:49:20.806Z,26.00
2022-10-31T04:51:48.263Z,29.70
2022-10-31T04:54:15.741Z,32.22
2022-10-31T04:56:43.221Z,40.38
2022-10-31T04:59:10.678Z,28.35
2022-10-31T05:01:38.285Z,28.38
2022-10-31T05:04:05.828Z,25.95
2022-10-31T05:06:33.264Z,30.80
2022-10-31T05:09:00.726Z,27.52
2022-10-31T05:11:28.152Z,28.23
2022-10-31T05:13:55.608Z,27.08
2022-10-31T05:16:23.040Z,29.52
2022-10-31T05:18:50.495Z,23.48
2022-10-31T05:21:17.953Z,31.40
2022-10-31T05:23:47.592Z,27.42
2022-10-31T05:26:16.135Z,28.80
2022-10-31T05:28:43.573Z,28.00
2022-10-31T05:31:11.051Z,26.55
2022-10-31T05:33:38.529Z,30.38
2022-10-31T05:36:06.393Z,24.38
2022-10-31T05:38:33.851Z,29.48
2022-10-31T05:41:02.068Z,25.83
2022-10-31T05:43:30.140Z,31.10
2022-10-31T05:45:58.235Z,25.15
2022-10-31T05:48:25.720Z,28.98
2022-10-31T05:50:53.187Z,29.30
2022-10-31T05:53:20.705Z,33.67
2022-10-31T05:55:48.545Z,27.08
2022-10-31T05:58:16.117Z,32.75
2022-10-31T06:00:43.541Z,28.90
2022-10-31T06:03:11.796Z,29.13
2022-10-31T06:05:39.346Z,31.65
2022-10-31T06:08:07.133Z,29.52
2022-10-31T06:10:34.617Z,33.03
2022-10-31T06:13:02.142Z,35.28
2022-10-31T06:15:29.618Z,37.03
2022-10-31T06:18:05.337Z,38.47
2022-10-31T06:20:33.967Z,46.55
2022-10-31T06:23:02.266Z,40.50
2022-10-31T06:25:30.490Z,48.22
2022-10-31T06:27:58.316Z,58.70
2022-10-31T06:30:25.795Z,53.45
2022-10-31T06:32:53.404Z,44.72
2022-10-31T06:35:20.947Z,59.63
2022-10-31T06:37:56.017Z,40.47
2022-10-31T06:40:23.817Z,41.45
2022-10-31T06:43:02.076Z,32.13
2022-10-31T06:45:30.440Z,42.78
2022-10-31T06:50:46.222Z,33.88
2022-10-31T06:53:15.146Z,42.15
2022-10-31T06:55:43.275Z,28.60
2022-10-31T06:58:12.047Z,32.72
2022-10-31T07:00:39.612Z,33.60
2022-10-31T07:03:14.586Z,33.88
2022-10-31T07:05:42.183Z,33.85
2022-10-31T07:08:13.274Z,43.22
2022-10-31T07:10:42.865Z,32.83
2022-10-31T07:13:15.148Z,27.92
2022-10-31T07:18:12.715Z,30.92
2022-10-31T07:20:40.472Z,29.15
2022-10-31T07:23:07.934Z,27.27
2022-10-31T07:25:35.400Z,29.15
2022-10-31T07:28:03.228Z,23.20
2022-10-31T07:30:31.391Z,26.05
2022-10-31T07:32:59.291Z,25.45
2022-10-31T07:35:29.327Z,25.95
2022-10-31T07:37:57.290Z,26.48
2022-10-31T07:40:26.449Z,29.00
2022-10-31T07:42:55.114Z,30.40
2022-10-31T07:45:22.930Z,31.80
2022-10-31T07:47:52.488Z,28.80
2022-10-31T07:50:34.720Z,24.25
2022-10-31T07:53:10.446Z,28.58
2022-10-31T07:55:38.969Z,31.08
2022-10-31T07:58:08.875Z,26.73
2022-10-31T08:00:37.773Z,28.58
2022-10-31T08:03:10.899Z,24.67
2022-10-31T08:05:39.390Z,23.10
2022-10-31T08:08:07.353Z,23.38
2022-10-31T08:10:36.143Z,24.17
2022-10-31T08:13:13.631Z,23.85
2022-10-31T08:15:43.109Z,26.92
2022-10-31T08:18:15.852Z,28.77
2022-10-31T08:20:44.705Z,28.45
2022-10-31T08:23:13.915Z,21.95
2022-10-31T08:25:42.817Z,20.23
2022-10-31T08:28:12.772Z,21.88
2022-10-31T08:30:41.339Z,23.95
2022-10-31T08:33:13.194Z,30.52
2022-10-31T08:35:41.286Z,29.42
2022-10-31T08:38:11.365Z,22.85
2022-10-31T08:40:39.103Z,23.27
2022-10-31T08:43:14.960Z,25.15
2022-10-31T08:45:43.501Z,27.60
2022-10-31T08:48:16.633Z,21.02
2022-10-31T08:50:45.817Z,21.58
2022-10-31T08:53:16.147Z,23.38
2022-10-31T08:55:45.192Z,27.63
2022-10-31T08:58:18.234Z,26.13
2022-10-31T09:00:47.484Z,29.67
2022-10-31T09:03:18.565Z,25.60
2022-10-31T09:05:46.812Z,26.65
2022-10-31T09:08:16.882Z,26.00
2022-10-31T09:10:45.600Z,29.80
2022-10-31T09:13:15.225Z,28.73
2022-10-31T09:15:45.524Z,27.15
2022-10-31T09:18:14.834Z,30.05
2022-10-31T09:20:43.684Z,27.30
2022-10-31T09:23:14.146Z,23.15
2022-10-31T09:25:47.591Z,35.42
2022-10-31T09:28:20.933Z,28.60
2022-10-31T09:30:50.319Z,26.00
2022-10-31T09:33:18.231Z,24.25
2022-10-31T09:35:45.944Z,28.95
2022-10-31T09:38:16.016Z,26.33
2022-10-31T09:40:45.330Z,28.50
2022-10-31T09:43:30.619Z,25.45
2022-10-31T09:46:07.445Z,33.50
2022-10-31T09:48:48.155Z,32.20
2022-10-31T09:51:22.241Z,28.75
2022-10-31T09:53:55.982Z,28.77
2022-10-31T09:56:25.294Z,24.05
2022-10-31T09:58:56.945Z,29.52
2022-10-31T10:01:30.428Z,25.88
2022-10-31T10:04:04.913Z,26.20
2022-10-31T10:06:40.317Z,32.42
2022-10-31T10:09:11.304Z,27.60
2022-10-31T10:11:39.251Z,24.67
2022-10-31T10:14:37.253Z,28.35
2022-10-31T10:17:29.645Z,28.50
2022-10-31T10:20:24.223Z,26.10
2022-10-31T10:23:03.909Z,24.92
2022-10-31T10:25:42.757Z,22.02
2022-10-31T10:28:28.031Z,22.70
2022-10-31T10:31:02.434Z,24.90
2022-10-31T10:33:38.816Z,25.85
2022-10-31T10:36:16.760Z,20.48
2022-10-31T10:38:56.207Z,22.05
2022-10-31T10:41:29.326Z,21.30
2022-10-31T10:43:59.602Z,21.42
2022-10-31T10:46:52.857Z,17.80
2022-10-31T10:49:30.313Z,18.15
2022-10-31T10:52:35.279Z,21.58
2022-10-31T10:55:14.960Z,22.45
2022-10-31T10:57:57.800Z,18.73
2022-10-31T11:00:33.948Z,17.77
2022-10-31T11:03:01.981Z,17.45
2022-10-31T11:05:45.926Z,18.75
2022-10-31T11:08:27.452Z,18.23
2022-10-31T11:11:06.160Z,16.75
2022-10-31T11:13:35.420Z,18.30
2022-10-31T11:16:06.623Z,17.60
2022-10-31T11:18:41.974Z,18.50
2022-10-31T11:21:23.487Z,20.13
2022-10-31T11:23:50.909Z,20.25
2022-10-31T11:26:22.121Z,21.73
2022-10-31T11:28:59.872Z,23.92
2022-10-31T11:31:29.417Z,22.67
2022-10-31T11:34:05.828Z,22.90
2022-10-31T11:36:37.380Z,20.98
2022-10-31T11:39:07.658Z,23.60
2022-10-31T11:41:39.423Z,25.20
2022-10-31T11:44:12.473Z,28.90
2022-10-31T11:46:43.519Z,27.95
2022-10-31T11:49:34.741Z,24.08
2022-10-31T11:52:33.104Z,27.10
2022-10-31T11:55:04.039Z,29.30
2022-10-31T11:57:45.392Z,29.60
2022-10-31T12:03:25.421Z,29.33
2022-10-31T12:06:02.394Z,30.77
2022-10-31T12:08:33.503Z,33.25
2022-10-31T12:11:25.519Z,40.38
2022-10-31T12:14:03.652Z,29.33
2022-10-31T12:16:55.468Z,31.63
2022-10-31T12:19:31.533Z,35.55
2022-10-31T12:22:10.788Z,38.13
2022-10-31T12:24:58.469Z,34.45
2022-10-31T12:28:02.187Z,34.15
2022-10-31T12:30:40.819Z,35.50
2022-10-31T12:33:38.356Z,35.78
2022-10-31T12:36:34.024Z,27.85
2022-10-31T12:39:11.984Z,33.17
2022-10-31T12:41:47.923Z,36.65
2022-10-31T12:44:31.132Z,32.92
2022-10-31T12:47:33.903Z,40.03
2022-10-31T12:52:53.292Z,41.85
2022-10-31T12:55:48.230Z,37.00
2022-10-31T12:58:33.637Z,40.45
2022-10-31T13:01:17.007Z,34.60
2022-10-31T13:03:58.285Z,38.40
2022-10-31T13:06:42.005Z,31.13
2022-10-31T13:09:17.607Z,45.78
2022-10-31T13:11:50.777Z,34.88
2022-10-31T13:14:29.528Z,38.53
2022-10-31T13:16:58.140Z,41.10
2022-10-31T13:19:25.608Z,39.00
2022-10-31T13:22:02.469Z,32.13
2022-10-31T13:24:41.471Z,34.88
2022-10-31T13:27:24.359Z,43.58
2022-10-31T13:29:57.926Z,36.90
2022-10-31T13:32:27.258Z,36.55
2022-10-31T13:34:59.749Z,35.75
2022-10-31T13:37:38.861Z,34.70
2022-10-31T13:40:24.398Z,38.15
2022-10-31T13:43:01.695Z,38.13
2022-10-31T13:45:30.290Z,37.83
2022-10-31T13:48:01.282Z,35.90
2022-10-31T13:50:34.746Z,35.33
2022-10-31T13:53:19.285Z,35.38
2022-10-31T13:55:49.914Z,31.00
2022-10-31T13:58:30.390Z,35.10
2022-10-31T14:01:23.043Z,31.50
2022-10-31T14:04:19.223Z,42.08
2022-10-31T14:06:55.440Z,33.15
2022-10-31T14:09:33.837Z,37.67
2022-10-31T14:12:26.892Z,44.22
2022-10-31T14:14:59.179Z,44.78
2022-10-31T14:17:33.769Z,39.72
2022-10-31T14:20:05.044Z,38.25
2022-10-31T14:22:37.470Z,40.10
2022-10-31T14:25:33.569Z,33.10
2022-10-31T14:28:04.965Z,43.03
2022-10-31T14:30:33.412Z,35.70
2022-10-31T14:33:04.531Z,40.80
2022-10-31T14:35:58.122Z,32.35
2022-10-31T14:38:43.893Z,32.72
2022-10-31T14:41:30.773Z,40.30
2022-10-31T14:44:25.681Z,39.05
2022-10-31T14:49:47.520Z,38.10
2022-10-31T14:52:19.169Z,35.45
2022-10-31T14:54:53.964Z,41.55
2022-10-31T14:57:27.033Z,39.17
2022-10-31T15:00:02.595Z,35.28
2022-10-31T15:02:39.791Z,41.97
2022-10-31T15:05:12.221Z,42.28
2022-10-31T15:08:00.133Z,44.63
2022-10-31T15:10:33.040Z,38.70
2022-10-31T15:13:20.407Z,34.40
2022-10-31T15:15:52.301Z,40.85
2022-10-31T15:20:51.864Z,31.52
2022-10-31T15:23:28.941Z,36.22
2022-10-31T15:26:03.626Z,34.53
2022-10-31T15:28:32.872Z,37.88
2022-10-31T15:31:05.023Z,36.85
2022-10-31T15:36:08.989Z,36.40
2022-10-31T15:38:38.389Z,38.33
2022-10-31T15:41:24.361Z,38.08
2022-10-31T15:43:52.644Z,35.63
2022-10-31T15:46:20.386Z,32.42
2022-10-31T15:48:49.808Z,32.50
2022-10-31T15:51:17.552Z,38.80
2022-10-31T15:53:54.220Z,36.17
2022-10-31T15:56:26.361Z,31.00
2022-10-31T16:01:23.653Z,40.47
2022-10-31T16:04:21.708Z,38.60
2022-10-31T16:07:00.932Z,32.47
2022-10-31T16:09:28.740Z,33.35
2022-10-31T16:12:00.416Z,32.30
2022-10-31T16:14:32.657Z,30.10
2022-10-31T16:19:32.486Z,38.22
2022-10-31T16:22:12.859Z,37.80
2022-10-31T16:24:48.263Z,30.85
2022-10-31T16:27:26.676Z,32.67
2022-10-31T16:29:54.781Z,32.40
2022-10-31T16:32:34.334Z,42.40
2022-10-31T16:35:02.738Z,33.85
2022-10-31T16:37:30.204Z,36.75
2022-10-31T16:39:57.680Z,34.20
2022-10-31T16:42:25.603Z,36.70
2022-10-31T16:44:53.216Z,37.30
2022-10-31T16:47:23.409Z,33.83
2022-10-31T16:49:54.422Z,35.00
2022-10-31T16:52:22.041Z,38.60
2022-10-31T16:54:49.833Z,35.20
2022-10-31T16:57:22.370Z,40.88
2022-10-31T17:02:20.156Z,38.05
2022-10-31T17:04:49.670Z,36.15
2022-10-31T17:07:19.738Z,39.42
2022-10-31T17:09:47.242Z,36.38
2022-10-31T17:12:22.085Z,35.15
2022-10-31T17:14:53.043Z,30.58
2022-10-31T17:17:20.502Z,38.13
2022-10-31T17:19:47.983Z,36.00
2022-10-31T17:22:16.578Z,32.58
2022-10-31T17:24:44.156Z,39.03
2022-10-31T17:27:11.641Z,39.08
2022-10-31T17:29:39.176Z,33.00
2022-10-31T17:32:06.960Z,31.85
2022-10-31T17:34:34.634Z,38.50
2022-10-31T17:37:02.141Z,37.95
2022-10-31T17:39:29.642Z,37.60
2022-10-31T17:41:57.148Z,34.83
2022-10-31T17:44:24.586Z,34.28
2022-10-31T17:46:52.076Z,34.95
2022-10-31T17:49:19.633Z,35.28
2022-10-31T17:51:47.146Z,34.72
2022-10-31T17:54:18.383Z,40.85
2022-10-31T17:56:45.841Z,51.42
2022-10-31T17:59:13.342Z,44.58
2022-10-31T18:01:40.934Z,38.83
2022-10-31T18:04:08.448Z,36.58
2022-10-31T18:06:35.937Z,34.35
2022-10-31T18:09:05.694Z,41.28
2022-10-31T18:11:33.984Z,36.75
2022-10-31T18:14:01.656Z,38.58
2022-10-31T18:16:29.205Z,33.60
2022-10-31T18:19:01.664Z,40.67
2022-10-31T18:21:30.378Z,35.63
2022-10-31T18:23:59.366Z,33.35
2022-10-31T18:26:29.265Z,40.42
2022-10-31T18:28:56.804Z,36.38
2022-10-31T18:31:25.705Z,31.02
2022-10-31T18:33:54.913Z,36.22
2022-10-31T18:36:22.540Z,37.90
2022-10-31T18:38:50.024Z,36.05
2022-10-31T18:41:17.912Z,33.33
2022-10-31T18:43:45.394Z,31.65
2022-10-31T18:46:17.792Z,30.48
2022-10-31T18:48:46.889Z,33.63
2022-10-31T18:51:17.987Z,32.88
2022-10-31T18:53:55.544Z,34.60
2022-10-31T18:56:24.002Z,34.20
2022-10-31T18:58:52.121Z,32.22
2022-10-31T19:01:23.774Z,29.60
2022-10-31T19:03:56.291Z,30.70
2022-10-31T19:06:25.278Z,29.13
2022-10-31T19:08:59.144Z,30.80
2022-10-31T19:11:26.967Z,28.20
2022-10-31T19:13:54.494Z,31.63
2022-10-31T19:16:21.993Z,30.30
2022-10-31T19:18:49.517Z,24.02
2022-10-31T19:21:18.801Z,38.70
2022-10-31T19:23:46.804Z,27.00
2022-10-31T19:26:15.052Z,22.80
2022-10-31T19:28:43.104Z,31.70
2022-10-31T19:31:11.273Z,24.85
2022-10-31T19:33:39.108Z,27.05
2022-10-31T19:36:14.467Z,32.03
2022-10-31T19:38:47.225Z,24.90
2022-10-31T19:41:22.361Z,23.75
2022-10-31T19:43:50.302Z,27.17
2022-10-31T19:46:22.658Z,30.38
2022-10-31T19:48:55.807Z,30.27
2022-10-31T19:51:23.305Z,24.05
2022-10-31T19:53:52.408Z,20.23
2022-10-31T19:56:25.149Z,23.90
2022-10-31T19:58:53.180Z,18.02
2022-10-31T20:01:23.571Z,22.40
2022-10-31T20:03:52.427Z,21.40
2022-10-31T20:06:27.552Z,27.77
2022-10-31T20:08:56.624Z,23.00
2022-10-31T20:11:26.058Z,17.40
2022-10-31T20:13:56.532Z,19.10
2022-10-31T20:16:24.967Z,17.42
2022-10-31T20:18:54.030Z,15.88
2022-10-31T20:21:24.740Z,26.92
2022-10-31T20:24:06.175Z,14.77
2022-10-31T20:26:35.071Z,16.10
2022-10-31T20:29:03.812Z,23.10
2022-10-31T20:31:34.349Z,20.13
2022-10-31T20:34:01.854Z,13.68
2022-10-31T20:36:30.853Z,20.73
2022-10-31T20:38:59.240Z,18.38
2022-10-31T20:41:27.324Z,15.57
2022-10-31T20:43:54.884Z,13.50
2022-10-31T20:46:24.958Z,16.13
2022-10-31T20:48:53.654Z,19.58
2022-10-31T20:51:23.700Z,12.73
2022-10-31T20:53:56.397Z,19.20
2022-10-31T20:56:25.976Z,15.57
2022-10-31T20:58:56.208Z,16.40
2022-10-31T21:01:27.005Z,15.65
2022-10-31T21:03:54.835Z,18.60
2022-10-31T21:06:24.088Z,14.05
2022-10-31T21:08:53.750Z,11.65
2022-10-31T21:11:24.467Z,11.70
2022-10-31T21:13:52.656Z,12.98
2022-10-31T21:16:25.569Z,18.15
2022-10-31T21:18:53.777Z,16.23
2022-10-31T21:21:33.547Z,15.40
2022-10-31T21:24:07.570Z,15.77
2022-10-31T21:26:37.951Z,16.20
2022-10-31T21:29:06.855Z,14.18
2022-10-31T21:31:36.132Z,14.00
2022-10-31T21:34:03.777Z,15.50
2022-10-31T21:36:31.276Z,16.38
2022-10-31T21:38:58.776Z,16.73
2022-10-31T21:41:26.766Z,14.48
2022-10-31T21:43:55.340Z,14.27
2022-10-31T21:46:34.893Z,17.65
2022-10-31T21:49:04.656Z,11.55
2022-10-31T21:51:34.795Z,8.57
2022-10-31T21:54:20.582Z,10.55
2022-10-31T21:56:48.572Z,12.05
2022-10-31T21:59:16.192Z,11.82
2022-10-31T22:01:43.804Z,15.10
2022-10-31T22:04:11.581Z,11.88
2022-10-31T22:06:39.480Z,13.93
2022-10-31T22:09:09.102Z,15.85
2022-10-31T22:11:36.978Z,14.13
2022-10-31T22:14:05.004Z,15.70
2022-10-31T22:16:35.740Z,12.65
2022-10-31T22:19:05.637Z,16.08
2022-10-31T22:21:39.522Z,8.15
2022-10-31T22:24:08.000Z,14.00
2022-10-31T22:26:35.929Z,11.02
2022-10-31T22:29:06.384Z,10.90
2022-10-31T22:31:35.154Z,14.27
2022-10-31T22:34:02.696Z,11.85
2022-10-31T22:36:31.701Z,15.73
2022-10-31T22:39:00.313Z,15.80
2022-10-31T22:41:30.581Z,11.20
2022-10-31T22:43:59.339Z,10.15
2022-10-31T22:46:30.036Z,13.43
2022-10-31T22:49:03.178Z,13.95
2022-10-31T22:51:33.834Z,9.98
2022-10-31T22:54:01.652Z,17.33
2022-10-31T22:56:32.223Z,16.38
2022-10-31T22:59:01.011Z,14.00
2022-10-31T23:01:31.964Z,12.63
2022-10-31T23:04:00.175Z,13.73
2022-10-31T23:06:30.096Z,9.52
2022-10-31T23:08:57.886Z,17.48
2022-10-31T23:11:28.421Z,13.52
2022-10-31T23:14:09.158Z,14.05
2022-10-31T23:16:51.017Z,14.27
2022-10-31T23:19:29.890Z,13.18
2022-10-31T23:22:00.947Z,17.50
2022-10-31T23:24:40.132Z,21.08
2022-10-31T23:27:15.088Z,16.95
2022-10-31T23:29:48.794Z,14.07
2022-10-31T23:32:22.381Z,16.63
2022-10-31T23:34:52.040Z,15.68
2022-10-31T23:37:23.078Z,10.57
2022-10-31T23:39:51.044Z,9.98
2022-10-31T23:42:19.722Z,8.30
2022-10-31T23:44:47.580Z,11.02
2022-10-31T23:47:15.853Z,15.13
2022-10-31T23:49:43.585Z,14.57
2022-10-31T23:52:12.102Z,20.70
2022-10-31T23:54:40.123Z,14.43
2022-10-31T23:57:07.682Z,14.00
2022-10-31T23:59:35.282Z,12.48
